Terminal Aerodrome Forecast
Issued by NWS Milwaukee/Sullivan, WI

Home | Current Version | Previous Version | Text Only | Print | Product List | Glossary On
Versions: 1 2 3 4 5 6 7 8 9 10 11 12 13 14 15 16 17 18 19 20 21 22 23 24 25 26 27 28 29 30
000
FTUS43 KMKX 170851 AAB
TAFMSN
TAF AMD
KMSN 170851Z 1709/1806 15017G22KT P6SM OVC080 WS020/18047KT
     FM171200 19010KT P6SM BKN080
     FM171500 25009KT P6SM BKN040
     FM171800 28009KT P6SM SCT040
     FM172200 32006KT P6SM SCT040
     FM180200 33003KT P6SM SCT250=

USA.gov is the U.S. government's official web portal to all federal, state and local government web resources and services.